createdAt,value
2023-08-29T00:00:52.562Z,39.58
2023-08-29T00:01:52.581Z,37.77
2023-08-29T00:02:52.589Z,38.06
2023-08-29T00:03:52.688Z,38.64
2023-08-29T00:04:52.528Z,38.38
2023-08-29T00:05:52.497Z,43.57
2023-08-29T00:06:52.495Z,40.57
2023-08-29T00:07:52.511Z,46.10
2023-08-29T00:08:52.473Z,41.32
2023-08-29T00:09:52.458Z,41.20
2023-08-29T00:10:52.443Z,43.30
2023-08-29T00:11:52.449Z,41.94
2023-08-29T00:12:52.434Z,39.56
2023-08-29T00:13:52.418Z,42.07
2023-08-29T00:14:52.405Z,41.68
2023-08-29T00:15:52.440Z,40.90
2023-08-29T00:16:52.397Z,41.25
2023-08-29T00:17:52.401Z,40.96
2023-08-29T00:18:52.382Z,40.96
2023-08-29T00:19:52.355Z,41.79
2023-08-29T00:20:52.340Z,42.51
2023-08-29T00:21:52.341Z,39.05
2023-08-29T00:22:52.319Z,39.97
2023-08-29T00:23:52.314Z,39.17
2023-08-29T00:24:52.302Z,38.54
2023-08-29T00:25:52.294Z,39.05
2023-08-29T00:26:52.285Z,38.96
2023-08-29T00:27:52.264Z,39.84
2023-08-29T00:28:52.258Z,39.18
2023-08-29T00:29:52.251Z,40.24
2023-08-29T00:30:52.233Z,38.37
2023-08-29T00:31:52.267Z,39.94
2023-08-29T00:32:52.296Z,39.31
2023-08-29T00:33:52.202Z,39.62
2023-08-29T00:34:52.188Z,39.80
2023-08-29T00:35:52.187Z,40.71
2023-08-29T00:36:52.183Z,43.41
2023-08-29T00:37:52.165Z,41.89
2023-08-29T00:38:52.158Z,42.38
2023-08-29T00:39:52.151Z,42.31
2023-08-29T00:40:52.131Z,39.94
2023-08-29T00:41:52.131Z,43.25
2023-08-29T00:42:52.113Z,40.43
2023-08-29T00:43:52.108Z,39.70
2023-08-29T00:44:52.089Z,39.61
2023-08-29T00:45:52.135Z,44.32
2023-08-29T00:46:52.079Z,40.88
2023-08-29T00:47:52.115Z,42.40
2023-08-29T00:48:52.050Z,45.17
2023-08-29T00:49:52.042Z,40.92
2023-08-29T00:50:52.039Z,42.03
2023-08-29T00:51:52.027Z,41.81
2023-08-29T00:52:52.021Z,42.46
2023-08-29T00:53:52.004Z,41.11
2023-08-29T00:54:51.985Z,40.28
2023-08-29T00:55:51.993Z,40.90
2023-08-29T00:56:51.970Z,41.69
2023-08-29T00:57:51.958Z,41.54
2023-08-29T00:58:51.951Z,40.61
2023-08-29T00:59:51.950Z,41.61
2023-08-29T01:00:51.927Z,42.66
2023-08-29T01:01:51.989Z,40.20
2023-08-29T01:02:51.952Z,39.32
2023-08-29T01:03:51.924Z,38.82
2023-08-29T01:04:51.894Z,38.73
2023-08-29T01:05:51.890Z,39.84
2023-08-29T01:06:51.865Z,39.99
2023-08-29T01:07:51.852Z,39.31
2023-08-29T01:08:51.844Z,40.05
2023-08-29T01:09:51.842Z,39.76
2023-08-29T01:10:51.823Z,40.46
2023-08-29T01:11:51.820Z,40.07
2023-08-29T01:12:51.797Z,40.21
2023-08-29T01:13:51.796Z,40.04
2023-08-29T01:14:51.798Z,39.57
2023-08-29T01:15:51.835Z,40.38
2023-08-29T01:16:51.757Z,40.76
2023-08-29T01:17:51.820Z,39.94
2023-08-29T01:18:51.743Z,38.98
2023-08-29T01:19:51.740Z,39.60
2023-08-29T01:20:51.726Z,41.83
2023-08-29T01:21:51.702Z,43.58
2023-08-29T01:22:57.450Z,39.73
2023-08-29T01:23:52.699Z,39.90
2023-08-29T01:24:51.679Z,38.05
2023-08-29T01:25:51.667Z,38.45
2023-08-29T01:26:51.651Z,38.81
2023-08-29T01:27:51.646Z,39.54
2023-08-29T01:28:51.651Z,39.32
2023-08-29T01:29:51.619Z,40.17
2023-08-29T01:30:51.618Z,40.21
2023-08-29T01:31:51.615Z,38.21
2023-08-29T01:32:51.628Z,38.17
2023-08-29T01:33:51.594Z,38.50
2023-08-29T01:34:51.567Z,37.86
2023-08-29T01:35:51.559Z,38.48
2023-08-29T01:36:51.545Z,41.12
2023-08-29T01:37:51.551Z,40.19
2023-08-29T01:38:51.531Z,39.68
2023-08-29T01:39:51.520Z,44.60
2023-08-29T01:40:51.498Z,40.18
2023-08-29T01:41:51.498Z,40.52
2023-08-29T01:42:51.493Z,42.36
2023-08-29T01:43:51.464Z,42.42
2023-08-29T01:44:51.520Z,40.22
2023-08-29T01:45:51.560Z,45.93
2023-08-29T01:46:51.448Z,42.02
2023-08-29T01:47:51.553Z,45.44
2023-08-29T01:48:51.427Z,41.88
2023-08-29T01:49:51.406Z,42.03
2023-08-29T01:50:51.440Z,42.41
2023-08-29T01:51:51.383Z,41.45
2023-08-29T01:52:51.384Z,42.53
2023-08-29T01:53:51.363Z,40.01
2023-08-29T01:54:51.357Z,41.40
2023-08-29T01:55:51.345Z,39.84
2023-08-29T01:56:51.349Z,38.45
2023-08-29T01:57:51.359Z,42.00
2023-08-29T01:58:51.318Z,44.60
2023-08-29T01:59:51.299Z,42.01
2023-08-29T02:00:51.320Z,41.08
2023-08-29T02:01:51.334Z,41.31
2023-08-29T02:02:51.314Z,41.91
2023-08-29T02:03:51.373Z,40.55
2023-08-29T02:04:51.282Z,41.12
2023-08-29T02:05:51.237Z,42.64
2023-08-29T02:06:51.247Z,43.21
2023-08-29T02:07:51.218Z,41.49
2023-08-29T02:08:51.211Z,43.36
2023-08-29T02:09:51.197Z,42.50
2023-08-29T02:10:51.193Z,40.22
2023-08-29T02:11:51.184Z,43.09
2023-08-29T02:12:51.170Z,41.10
2023-08-29T02:13:51.148Z,43.53
2023-08-29T02:14:51.150Z,43.02
2023-08-29T02:15:51.139Z,42.66
2023-08-29T02:16:51.139Z,43.51
2023-08-29T02:17:51.149Z,41.87
2023-08-29T02:18:51.097Z,41.75
2023-08-29T02:19:51.087Z,42.94
2023-08-29T02:20:51.096Z,41.56
2023-08-29T02:21:51.069Z,41.64
2023-08-29T02:22:51.075Z,41.65
2023-08-29T02:23:51.068Z,41.69
2023-08-29T02:24:51.036Z,41.80
2023-08-29T02:25:51.044Z,40.43
2023-08-29T02:26:51.034Z,39.77
2023-08-29T02:27:51.009Z,41.86
2023-08-29T02:28:50.995Z,41.87
2023-08-29T02:29:50.997Z,41.92
2023-08-29T02:30:51.037Z,41.19
2023-08-29T02:31:50.979Z,41.77
2023-08-29T02:32:50.984Z,41.43
2023-08-29T02:33:50.934Z,41.13
2023-08-29T02:34:50.958Z,40.73
2023-08-29T02:35:50.918Z,40.55
2023-08-29T02:36:50.907Z,40.74
2023-08-29T02:37:50.904Z,39.88
2023-08-29T02:38:50.889Z,45.05
2023-08-29T02:39:50.886Z,41.75
2023-08-29T02:40:50.864Z,41.60
2023-08-29T02:41:50.854Z,41.22
2023-08-29T02:42:50.850Z,40.29
2023-08-29T02:43:50.830Z,40.96
2023-08-29T02:44:50.836Z,39.99
2023-08-29T02:45:50.829Z,39.16
2023-08-29T02:46:50.850Z,40.22
2023-08-29T02:47:50.788Z,39.12
2023-08-29T02:48:50.796Z,39.06
2023-08-29T02:49:50.795Z,39.59
2023-08-29T02:50:50.762Z,40.43
2023-08-29T02:51:50.755Z,41.18
2023-08-29T02:52:50.739Z,39.99
2023-08-29T02:53:50.747Z,40.18
2023-08-29T02:54:50.719Z,44.61
2023-08-29T02:55:50.735Z,40.71
2023-08-29T02:56:50.692Z,45.98
2023-08-29T02:57:50.687Z,39.63
2023-08-29T02:58:50.684Z,39.89
2023-08-29T02:59:50.667Z,40.45
2023-08-29T03:00:50.698Z,40.20
2023-08-29T03:01:50.646Z,41.41
2023-08-29T03:02:50.668Z,41.11
2023-08-29T03:03:50.760Z,41.31
2023-08-29T03:04:50.617Z,41.52
2023-08-29T03:05:50.608Z,40.96
2023-08-29T03:06:50.609Z,42.75
2023-08-29T03:07:50.605Z,40.55
2023-08-29T03:08:50.586Z,40.61
2023-08-29T03:09:50.575Z,39.80
2023-08-29T03:10:50.548Z,40.34
2023-08-29T03:11:50.544Z,40.60
2023-08-29T03:12:50.545Z,41.24
2023-08-29T03:13:50.531Z,46.17
2023-08-29T03:14:50.509Z,40.49
2023-08-29T03:15:50.512Z,39.83
2023-08-29T03:16:50.554Z,41.49
2023-08-29T03:17:50.566Z,42.07
2023-08-29T03:18:50.469Z,52.17
2023-08-29T03:19:50.456Z,44.36
2023-08-29T03:20:50.453Z,45.05
2023-08-29T03:21:50.456Z,48.83
2023-08-29T03:22:50.446Z,43.74
2023-08-29T03:23:50.431Z,41.97
2023-08-29T03:24:50.417Z,43.89
2023-08-29T03:25:50.402Z,44.51
2023-08-29T03:26:50.405Z,47.63
2023-08-29T03:27:50.380Z,43.34
2023-08-29T03:28:50.371Z,41.99
2023-08-29T03:29:50.359Z,46.66
2023-08-29T03:30:50.381Z,41.52
2023-08-29T03:31:50.343Z,43.74
2023-08-29T03:32:50.477Z,45.65
2023-08-29T03:33:50.325Z,45.22
2023-08-29T03:34:50.302Z,45.82
2023-08-29T03:35:50.303Z,42.57
2023-08-29T03:36:50.295Z,45.18
2023-08-29T03:37:50.278Z,46.99
2023-08-29T03:38:50.257Z,43.93
2023-08-29T03:39:50.270Z,45.35
2023-08-29T03:40:50.244Z,41.21
2023-08-29T03:41:50.261Z,47.60
2023-08-29T03:42:50.211Z,44.18
2023-08-29T03:43:50.205Z,47.67
2023-08-29T03:44:50.190Z,50.10
2023-08-29T03:45:50.230Z,47.16
2023-08-29T03:46:50.170Z,43.63
2023-08-29T03:47:50.201Z,45.19
2023-08-29T03:48:50.151Z,46.50
2023-08-29T03:49:50.147Z,43.64
2023-08-29T03:50:50.144Z,42.31
2023-08-29T03:51:50.116Z,42.25
2023-08-29T03:52:50.106Z,44.81
2023-08-29T03:53:50.102Z,52.28
2023-08-29T03:54:50.086Z,51.56
2023-08-29T03:55:50.098Z,49.85
2023-08-29T03:56:50.108Z,50.28
2023-08-29T03:57:50.060Z,47.41
2023-08-29T03:58:50.041Z,42.85
2023-08-29T03:59:50.036Z,43.00
2023-08-29T04:00:50.037Z,53.11
2023-08-29T04:01:50.010Z,46.51
2023-08-29T04:02:50.078Z,41.91
2023-08-29T04:03:53.617Z,42.42
2023-08-29T04:04:50.044Z,46.48
2023-08-29T04:05:50.175Z,41.12
2023-08-29T04:06:49.967Z,49.71
2023-08-29T04:07:49.957Z,49.31
2023-08-29T04:08:49.934Z,47.00
2023-08-29T04:09:49.944Z,44.69
2023-08-29T04:10:49.929Z,45.16
2023-08-29T04:11:49.906Z,49.33
2023-08-29T04:12:49.891Z,49.11
2023-08-29T04:13:50.720Z,45.60
2023-08-29T04:14:49.883Z,47.84
2023-08-29T04:15:49.859Z,47.72
2023-08-29T04:16:49.879Z,47.85
2023-08-29T04:17:49.843Z,48.55
2023-08-29T04:18:50.528Z,51.09
2023-08-29T04:19:49.836Z,48.01
2023-08-29T04:20:49.805Z,53.64
2023-08-29T04:21:49.800Z,47.26
2023-08-29T04:22:49.785Z,48.13
2023-08-29T04:23:49.780Z,46.65
2023-08-29T04:24:49.772Z,42.42
2023-08-29T04:25:49.759Z,41.91
2023-08-29T04:26:49.746Z,49.09
2023-08-29T04:27:49.736Z,50.85
2023-08-29T04:28:50.144Z,47.84
2023-08-29T04:30:28.807Z,52.77
2023-08-29T04:30:50.405Z,48.34
2023-08-29T04:31:49.700Z,44.17
2023-08-29T04:32:49.725Z,46.04
2023-08-29T04:33:49.691Z,48.24
2023-08-29T04:34:49.671Z,47.98
2023-08-29T04:35:49.663Z,49.22
2023-08-29T04:36:49.636Z,48.95
2023-08-29T04:37:49.647Z,48.94
2023-08-29T04:38:49.629Z,55.12
2023-08-29T04:39:49.616Z,48.84
2023-08-29T04:40:49.596Z,49.20
2023-08-29T04:41:49.584Z,53.03
2023-08-29T04:42:49.570Z,50.22
2023-08-29T04:43:49.595Z,51.52
2023-08-29T04:44:49.553Z,49.18
2023-08-29T04:45:49.607Z,48.49
2023-08-29T04:46:49.532Z,46.09
2023-08-29T04:47:49.547Z,47.57
2023-08-29T04:48:49.520Z,53.44
2023-08-29T04:49:49.503Z,51.11
2023-08-29T04:50:49.501Z,48.97
2023-08-29T04:51:49.476Z,48.61
2023-08-29T04:52:49.482Z,44.83
2023-08-29T04:53:49.462Z,50.26
2023-08-29T04:54:49.445Z,48.78
2023-08-29T04:55:49.447Z,55.41
2023-08-29T04:56:49.432Z,51.82
2023-08-29T04:57:49.425Z,53.02
2023-08-29T04:58:49.410Z,46.24
2023-08-29T04:59:49.395Z,51.11
2023-08-29T05:00:50.234Z,50.12
2023-08-29T05:01:51.032Z,50.25
2023-08-29T05:02:49.422Z,52.96
2023-08-29T05:03:49.392Z,54.12
2023-08-29T05:04:49.368Z,48.95
2023-08-29T05:05:49.335Z,45.49
2023-08-29T05:06:49.330Z,48.00
2023-08-29T05:07:49.317Z,53.76
2023-08-29T05:08:49.288Z,53.26
2023-08-29T05:09:49.289Z,51.42
2023-08-29T05:10:49.287Z,49.31
2023-08-29T05:11:49.279Z,51.03
2023-08-29T05:12:49.261Z,51.20
2023-08-29T05:13:49.238Z,51.40
2023-08-29T05:14:49.253Z,49.47
2023-08-29T05:15:49.252Z,51.34
2023-08-29T05:17:28.492Z,46.35
2023-08-29T05:17:49.238Z,42.84
2023-08-29T05:18:49.187Z,46.64
2023-08-29T05:19:49.182Z,54.00
2023-08-29T05:20:49.293Z,51.83
2023-08-29T05:21:49.171Z,45.53
2023-08-29T05:22:49.142Z,48.08
2023-08-29T05:23:49.136Z,49.47
2023-08-29T05:24:49.119Z,51.55
2023-08-29T05:25:49.123Z,51.83
2023-08-29T05:26:49.127Z,44.77
2023-08-29T05:27:49.098Z,47.10
2023-08-29T05:28:49.084Z,50.20
2023-08-29T05:29:49.077Z,54.03
2023-08-29T05:30:49.072Z,52.55
2023-08-29T05:31:49.080Z,56.70
2023-08-29T05:32:49.098Z,54.69
2023-08-29T05:33:49.042Z,47.97
2023-08-29T05:34:49.021Z,47.24
2023-08-29T05:35:49.022Z,51.38
2023-08-29T05:36:49.021Z,49.80
2023-08-29T05:37:49.813Z,47.50
2023-08-29T05:38:49.017Z,51.04
2023-08-29T05:39:48.985Z,49.32
2023-08-29T05:40:48.977Z,55.59
2023-08-29T05:41:48.945Z,46.55
2023-08-29T05:42:48.963Z,49.70
2023-08-29T05:43:48.927Z,45.72
2023-08-29T05:44:48.942Z,47.52
2023-08-29T05:45:48.906Z,52.47
2023-08-29T05:46:48.914Z,44.73
2023-08-29T05:47:48.934Z,49.32
2023-08-29T05:48:48.873Z,52.09
2023-08-29T05:49:48.879Z,56.50
2023-08-29T05:50:48.857Z,52.75
2023-08-29T05:51:50.188Z,53.51
2023-08-29T05:52:48.885Z,48.34
2023-08-29T05:53:48.862Z,49.53
2023-08-29T05:54:48.823Z,52.64
2023-08-29T05:55:48.799Z,48.85
2023-08-29T05:56:48.790Z,55.11
2023-08-29T05:57:48.782Z,51.74
2023-08-29T05:58:48.818Z,50.91
2023-08-29T05:59:48.757Z,52.03
2023-08-29T06:00:48.781Z,52.10
2023-08-29T06:01:48.735Z,49.32
2023-08-29T06:02:48.739Z,47.44
2023-08-29T06:03:48.792Z,51.74
2023-08-29T06:04:48.706Z,55.35
2023-08-29T06:05:48.699Z,51.21
2023-08-29T06:06:48.680Z,56.19
2023-08-29T06:07:48.896Z,45.52
2023-08-29T06:08:48.676Z,52.25
2023-08-29T06:09:48.651Z,50.59
2023-08-29T06:10:48.639Z,47.37
2023-08-29T06:11:48.630Z,43.63
2023-08-29T06:12:48.643Z,50.61
2023-08-29T06:13:48.624Z,48.62
2023-08-29T06:14:48.597Z,52.14
2023-08-29T06:15:48.601Z,53.35
2023-08-29T06:16:48.702Z,46.59
2023-08-29T06:17:48.615Z,49.24
2023-08-29T06:18:48.579Z,47.30
2023-08-29T06:19:48.558Z,47.84
2023-08-29T06:20:48.550Z,49.80
2023-08-29T06:21:48.519Z,44.68
2023-08-29T06:22:48.515Z,48.19
2023-08-29T06:23:48.578Z,50.57
2023-08-29T06:24:48.491Z,49.76
2023-08-29T06:25:48.487Z,54.84
2023-08-29T06:26:48.489Z,52.83
2023-08-29T06:27:48.476Z,43.36
2023-08-29T06:28:48.464Z,51.11
2023-08-29T06:29:48.467Z,55.00
2023-08-29T06:30:48.459Z,55.99
2023-08-29T06:31:48.439Z,52.61
2023-08-29T06:32:48.470Z,54.03
2023-08-29T06:33:48.392Z,51.22
2023-08-29T06:34:48.382Z,48.61
2023-08-29T06:35:48.370Z,54.10
2023-08-29T06:36:48.397Z,55.16
2023-08-29T06:37:48.349Z,48.32
2023-08-29T06:38:48.344Z,45.71
2023-08-29T06:39:48.325Z,51.91
2023-08-29T06:40:48.328Z,51.76
2023-08-29T06:41:48.318Z,49.58
2023-08-29T06:42:48.287Z,47.06
2023-08-29T06:43:48.297Z,46.63
2023-08-29T06:44:48.286Z,58.84
2023-08-29T06:45:48.271Z,53.90
2023-08-29T06:46:48.277Z,51.21
2023-08-29T06:47:48.257Z,43.98
2023-08-29T06:48:48.232Z,46.88
2023-08-29T06:49:48.230Z,43.89
2023-08-29T06:50:48.234Z,54.60
2023-08-29T06:51:48.200Z,53.77
2023-08-29T06:52:48.248Z,56.10
2023-08-29T06:53:48.189Z,53.32
2023-08-29T06:54:48.177Z,53.28
2023-08-29T06:55:48.206Z,43.90
2023-08-29T06:56:48.159Z,47.17
2023-08-29T06:57:48.162Z,47.77
2023-08-29T06:58:48.131Z,52.73
2023-08-29T06:59:48.129Z,49.75
2023-08-29T07:00:48.182Z,49.93
2023-08-29T07:01:48.095Z,51.54
2023-08-29T07:02:48.203Z,55.13
2023-08-29T07:03:48.155Z,53.12
2023-08-29T07:04:48.109Z,47.09
2023-08-29T07:05:48.075Z,43.47
2023-08-29T07:06:48.134Z,49.81
2023-08-29T07:07:48.079Z,45.03
2023-08-29T07:08:48.027Z,49.44
2023-08-29T07:09:48.086Z,48.84
2023-08-29T07:10:48.030Z,48.34
2023-08-29T07:11:48.003Z,47.15
2023-08-29T07:12:47.994Z,50.18
2023-08-29T07:13:48.000Z,45.76
2023-08-29T07:14:48.061Z,43.23
2023-08-29T07:15:47.957Z,48.49
2023-08-29T07:16:53.710Z,46.13
2023-08-29T07:17:48.956Z,51.34
2023-08-29T07:18:47.932Z,48.92
2023-08-29T07:19:47.919Z,46.22
2023-08-29T07:20:47.895Z,48.73
2023-08-29T07:21:47.883Z,50.85
2023-08-29T07:22:47.886Z,49.43
2023-08-29T07:23:47.900Z,46.91
2023-08-29T07:24:47.863Z,47.07
2023-08-29T07:25:47.889Z,51.64
2023-08-29T07:26:47.829Z,50.74
2023-08-29T07:27:47.831Z,47.19
2023-08-29T07:28:47.824Z,50.93
2023-08-29T07:29:47.825Z,48.22
2023-08-29T07:30:47.874Z,49.80
2023-08-29T07:31:47.792Z,45.54
2023-08-29T07:32:47.824Z,44.67
2023-08-29T07:33:47.774Z,52.19
2023-08-29T07:34:47.780Z,47.53
2023-08-29T07:35:47.752Z,55.17
2023-08-29T07:36:47.762Z,49.03
2023-08-29T07:37:47.748Z,47.79
2023-08-29T13:49:39.748Z,43.42
2023-08-29T13:50:38.944Z,40.76
2023-08-29T13:51:38.027Z,43.23
2023-08-29T13:53:12.193Z,47.15
2023-08-29T13:53:37.886Z,47.59
2023-08-29T13:54:37.945Z,45.67
2023-08-29T13:55:37.870Z,44.40
2023-08-29T13:56:37.864Z,49.00
2023-08-29T13:57:37.855Z,43.79
2023-08-29T13:58:37.833Z,41.22
2023-08-29T13:59:37.855Z,43.79
2023-08-29T14:00:37.816Z,46.68
2023-08-29T14:01:37.883Z,45.01
2023-08-29T14:02:37.929Z,50.97
2023-08-29T14:03:39.413Z,40.92
2023-08-29T14:04:37.787Z,48.77
2023-08-29T14:05:37.770Z,40.10
2023-08-29T14:06:37.796Z,48.03
2023-08-29T14:07:37.749Z,43.49
2023-08-29T14:08:37.744Z,44.23
2023-08-29T14:09:37.731Z,49.02
2023-08-29T14:10:37.714Z,50.55
2023-08-29T14:11:37.732Z,49.68
2023-08-29T14:12:37.684Z,45.24
2023-08-29T14:13:37.693Z,44.05
2023-08-29T14:14:37.713Z,49.16
2023-08-29T14:15:37.697Z,46.26
2023-08-29T14:16:37.692Z,45.13
2023-08-29T14:17:37.665Z,48.62
2023-08-29T14:18:37.652Z,39.97
2023-08-29T14:19:37.669Z,44.23
2023-08-29T14:20:37.637Z,49.31
2023-08-29T14:21:37.645Z,52.25
2023-08-29T14:22:37.655Z,56.23
2023-08-29T14:23:37.591Z,53.32
2023-08-29T14:24:37.586Z,50.52
2023-08-29T14:25:37.598Z,40.40
2023-08-29T14:26:37.554Z,46.55
2023-08-29T14:27:40.115Z,46.37
2023-08-29T14:28:37.549Z,51.85
2023-08-29T14:29:37.550Z,46.14
2023-08-29T14:30:37.526Z,44.99
2023-08-29T14:31:37.588Z,46.64
2023-08-29T14:32:37.532Z,45.78
2023-08-29T14:33:37.482Z,46.72
2023-08-29T14:34:37.489Z,47.03
2023-08-29T14:35:37.475Z,47.06
2023-08-29T14:36:37.482Z,49.80
2023-08-29T14:37:37.527Z,45.28
2023-08-29T14:38:37.444Z,45.72
2023-08-29T14:39:37.512Z,47.99
2023-08-29T14:40:37.416Z,47.78
2023-08-29T14:41:37.416Z,47.23
2023-08-29T14:42:37.428Z,42.49
2023-08-29T14:43:37.389Z,42.45
2023-08-29T14:44:37.481Z,48.32
2023-08-29T14:45:37.368Z,49.99
2023-08-29T14:46:37.390Z,45.36
2023-08-29T14:47:37.423Z,38.90
2023-08-29T14:48:37.404Z,46.89
2023-08-29T14:49:37.360Z,40.13
2023-08-29T14:50:37.338Z,41.01
2023-08-29T14:51:37.399Z,44.18
2023-08-29T14:52:37.322Z,45.07
2023-08-29T14:53:37.313Z,42.87
2023-08-29T14:54:37.304Z,51.31
2023-08-29T14:55:37.290Z,37.39
2023-08-29T14:56:37.302Z,45.09
2023-08-29T14:57:37.289Z,43.06
2023-08-29T14:58:37.293Z,45.78
2023-08-29T14:59:37.287Z,49.72
2023-08-29T15:00:37.266Z,39.73
2023-08-29T15:01:37.260Z,40.63
2023-08-29T15:02:37.359Z,44.68
2023-08-29T15:03:37.262Z,49.56
2023-08-29T15:04:37.198Z,42.38
2023-08-29T15:05:37.183Z,44.29
2023-08-29T15:06:37.169Z,47.83
2023-08-29T15:07:37.166Z,45.64
2023-08-29T15:08:37.146Z,44.38
2023-08-29T15:09:37.132Z,35.56
2023-08-29T15:10:37.157Z,43.37
2023-08-29T15:11:37.126Z,45.11
2023-08-29T15:12:37.120Z,39.04
2023-08-29T15:13:37.421Z,41.09
2023-08-29T15:14:37.109Z,49.19
2023-08-29T15:15:37.167Z,49.30
2023-08-29T15:16:37.115Z,44.52
2023-08-29T15:17:37.225Z,45.95
2023-08-29T15:18:37.044Z,45.92
2023-08-29T15:19:37.041Z,51.92
2023-08-29T15:20:37.025Z,48.45
2023-08-29T15:21:37.044Z,48.19
2023-08-29T15:22:37.012Z,49.74
2023-08-29T15:23:37.019Z,47.02
2023-08-29T15:24:36.988Z,43.74
2023-08-29T15:25:36.972Z,47.38
2023-08-29T15:26:36.985Z,36.31
2023-08-29T15:27:36.950Z,42.35
2023-08-29T15:28:36.946Z,48.63
2023-08-29T15:29:36.938Z,49.85
2023-08-29T15:30:36.928Z,51.89
2023-08-29T15:31:36.933Z,45.93
2023-08-29T15:32:36.949Z,48.57
2023-08-29T15:33:36.889Z,50.15
2023-08-29T15:34:36.890Z,48.95
2023-08-29T15:35:36.892Z,46.49
2023-08-29T15:36:36.891Z,46.87
2023-08-29T15:37:36.854Z,37.43
2023-08-29T15:38:36.846Z,44.75
2023-08-29T15:39:36.834Z,51.56
2023-08-29T15:40:36.840Z,42.18
2023-08-29T15:41:36.841Z,47.08
2023-08-29T15:42:36.830Z,39.77
2023-08-29T15:43:36.789Z,50.37
2023-08-29T15:44:36.796Z,49.86
2023-08-29T15:45:36.784Z,45.72
2023-08-29T15:46:36.805Z,46.72
2023-08-29T15:47:36.816Z,47.39
2023-08-29T15:48:36.759Z,48.30
2023-08-29T15:49:36.729Z,54.15
2023-08-29T15:50:36.737Z,45.52
2023-08-29T15:51:36.726Z,48.23
2023-08-29T15:52:36.703Z,47.62
2023-08-29T15:53:36.694Z,53.95
2023-08-29T15:54:36.709Z,49.47
2023-08-29T15:55:36.693Z,52.67
2023-08-29T15:56:36.677Z,48.39
2023-08-29T15:57:36.658Z,41.45
2023-08-29T15:58:36.676Z,43.13
2023-08-29T15:59:36.673Z,50.03
2023-08-29T16:00:36.642Z,50.80
2023-08-29T16:01:36.679Z,54.15
2023-08-29T16:02:36.643Z,40.32
2023-08-29T16:03:36.748Z,40.40
2023-08-29T16:04:36.618Z,49.38
2023-08-29T16:05:36.577Z,50.09
2023-08-29T16:06:36.646Z,46.14
2023-08-29T16:07:36.559Z,40.17
2023-08-29T16:08:36.565Z,40.89
2023-08-29T16:09:36.547Z,49.72
2023-08-29T16:10:36.530Z,44.22
2023-08-29T16:11:36.509Z,46.81
2023-08-29T16:12:36.597Z,42.29
2023-08-29T16:13:36.516Z,46.60
2023-08-29T16:14:36.510Z,47.76
2023-08-29T16:15:36.482Z,43.55
2023-08-29T16:16:36.504Z,55.50
2023-08-29T16:17:36.462Z,51.21
2023-08-29T16:18:36.468Z,49.06
2023-08-29T16:19:36.441Z,48.28
2023-08-29T16:20:36.433Z,50.25
2023-08-29T16:21:36.432Z,55.86
2023-08-29T16:22:36.444Z,55.53
2023-08-29T16:23:36.431Z,58.70
2023-08-29T16:24:36.398Z,54.11
2023-08-29T16:25:36.385Z,49.77
2023-08-29T16:26:36.386Z,52.99
2023-08-29T16:27:36.409Z,50.95
2023-08-29T16:28:36.359Z,53.87
2023-08-29T16:29:36.350Z,55.04
2023-08-29T16:30:36.383Z,55.51
2023-08-29T16:31:36.331Z,56.56
2023-08-29T16:32:36.394Z,60.76
2023-08-29T16:33:36.347Z,61.42
2023-08-29T16:34:36.301Z,54.14
2023-08-29T16:35:36.298Z,46.36
2023-08-29T16:36:37.485Z,49.81
2023-08-29T16:37:37.467Z,46.28
2023-08-29T16:38:37.424Z,40.15
2023-08-29T16:39:37.456Z,41.64
2023-08-29T16:40:37.424Z,42.59
2023-08-29T16:41:37.421Z,53.52
2023-08-29T16:42:37.411Z,47.22
2023-08-29T16:43:37.401Z,52.70
2023-08-29T16:44:37.386Z,57.14
2023-08-29T16:45:37.365Z,52.68
2023-08-29T16:46:37.434Z,50.56
2023-08-29T16:47:38.395Z,50.52
2023-08-29T16:48:37.358Z,42.52
2023-08-29T16:49:37.346Z,49.88
2023-08-29T16:50:37.352Z,50.05
2023-08-29T16:51:37.335Z,47.47
2023-08-29T16:52:37.377Z,44.89
2023-08-29T16:53:37.284Z,43.78
2023-08-29T16:54:37.302Z,39.05
2023-08-29T16:55:37.287Z,49.98
2023-08-29T16:56:37.307Z,38.37
2023-08-29T16:57:37.302Z,42.46
2023-08-29T16:58:37.248Z,41.32
2023-08-29T16:59:37.220Z,45.74
2023-08-29T17:00:37.274Z,45.78
2023-08-29T17:01:37.245Z,48.50
2023-08-29T17:02:37.337Z,53.11
2023-08-29T17:03:37.286Z,44.86
2023-08-29T17:04:37.202Z,44.78
2023-08-29T17:05:37.198Z,43.01
2023-08-29T17:06:37.238Z,37.32
2023-08-29T17:07:37.163Z,50.87
2023-08-29T17:08:37.152Z,43.69
2023-08-29T17:09:37.148Z,44.13
2023-08-29T17:10:37.168Z,52.60
2023-08-29T17:11:37.120Z,44.80
2023-08-29T17:12:37.109Z,42.75
2023-08-29T17:13:37.083Z,46.61
2023-08-29T17:14:37.095Z,48.93
2023-08-29T17:15:37.060Z,47.87
2023-08-29T17:16:37.110Z,45.41
2023-08-29T17:17:37.062Z,42.08
2023-08-29T17:18:37.018Z,42.66
2023-08-29T17:19:37.050Z,45.60
2023-08-29T17:20:37.022Z,44.24
2023-08-29T17:21:37.007Z,46.00
2023-08-29T17:22:37.010Z,45.51
2023-08-29T17:23:36.975Z,45.89
2023-08-29T17:24:36.982Z,36.34
2023-08-29T17:25:36.949Z,41.02
2023-08-29T17:26:36.941Z,37.13
2023-08-29T17:27:36.965Z,35.33
2023-08-29T17:28:37.316Z,41.74
2023-08-29T17:29:36.959Z,45.65
2023-08-29T17:30:36.898Z,42.20
2023-08-29T17:31:36.933Z,42.05
2023-08-29T17:32:36.884Z,35.13
2023-08-29T17:33:36.893Z,36.93
2023-08-29T17:34:36.862Z,39.74
2023-08-29T17:35:36.863Z,51.56
2023-08-29T17:36:36.864Z,39.07
2023-08-29T17:37:36.825Z,40.16
2023-08-29T17:38:36.846Z,42.20
2023-08-29T17:39:36.840Z,37.65
2023-08-29T17:40:36.834Z,35.21
2023-08-29T17:41:36.801Z,35.43
2023-08-29T17:42:36.798Z,33.74
2023-08-29T17:43:36.780Z,41.26
2023-08-29T17:44:36.785Z,43.25
2023-08-29T17:45:36.819Z,36.50
2023-08-29T17:46:36.765Z,35.02
2023-08-29T17:47:36.794Z,42.52
2023-08-29T17:48:36.741Z,41.35
2023-08-29T17:49:36.716Z,36.91
2023-08-29T17:50:36.711Z,42.75
2023-08-29T17:51:36.726Z,46.13
2023-08-29T17:52:36.753Z,35.98
2023-08-29T17:53:36.711Z,42.26
2023-08-29T17:54:36.675Z,42.27
2023-08-29T17:55:36.671Z,38.80
2023-08-29T17:56:36.690Z,44.48
2023-08-29T17:57:36.664Z,47.55
2023-08-29T17:58:36.656Z,39.46
2023-08-29T17:59:36.653Z,44.26
2023-08-29T18:00:36.659Z,48.78
2023-08-29T18:01:36.706Z,41.29
2023-08-29T18:02:36.725Z,38.43
2023-08-29T18:03:36.703Z,44.36
2023-08-29T18:04:36.649Z,36.60
2023-08-29T18:05:36.625Z,40.36
2023-08-29T18:06:36.575Z,44.31
2023-08-29T18:07:36.577Z,44.75
2023-08-29T18:08:36.550Z,49.18
2023-08-29T18:09:36.557Z,45.93
2023-08-29T18:10:36.550Z,44.13
2023-08-29T18:11:36.528Z,50.31
2023-08-29T18:12:36.555Z,44.84
2023-08-29T18:13:36.523Z,45.37
2023-08-29T18:14:36.482Z,46.16
2023-08-29T18:15:36.476Z,40.41
2023-08-29T18:16:36.471Z,42.06
2023-08-29T18:17:36.519Z,42.52
2023-08-29T18:18:36.429Z,45.08
2023-08-29T18:19:36.457Z,46.90
2023-08-29T18:20:36.426Z,42.36
2023-08-29T18:21:36.411Z,43.46
2023-08-29T18:22:36.382Z,45.07
2023-08-29T18:23:36.407Z,44.45
2023-08-29T18:24:36.414Z,45.36
2023-08-29T18:25:36.412Z,44.05
2023-08-29T18:26:36.394Z,46.44
2023-08-29T18:27:36.375Z,41.94
2023-08-29T18:28:36.371Z,49.93
2023-08-29T18:29:36.400Z,54.34
2023-08-29T18:30:36.374Z,46.76
2023-08-29T18:31:36.339Z,46.45
2023-08-29T18:32:36.364Z,45.80
2023-08-29T18:33:36.298Z,42.14
2023-08-29T18:34:36.312Z,42.26
2023-08-29T18:35:36.291Z,41.79
2023-08-29T18:36:38.266Z,48.96
2023-08-29T18:37:36.269Z,46.73
2023-08-29T18:38:36.254Z,48.37
2023-08-29T18:39:36.297Z,42.92
2023-08-29T18:40:36.241Z,49.06
2023-08-29T18:41:36.242Z,47.60
2023-08-29T18:42:36.242Z,43.42
2023-08-29T18:43:36.220Z,44.59
2023-08-29T18:44:36.239Z,43.14
2023-08-29T18:45:36.207Z,45.98
2023-08-29T18:46:36.183Z,40.24
2023-08-29T18:47:36.222Z,39.60
2023-08-29T18:48:36.177Z,45.31
2023-08-29T18:49:36.159Z,47.88
2023-08-29T18:50:36.147Z,54.14
2023-08-29T18:51:36.123Z,45.00
2023-08-29T18:52:36.186Z,41.89
2023-08-29T18:53:36.122Z,42.90
2023-08-29T18:54:36.119Z,44.55
2023-08-29T18:55:36.097Z,47.25
2023-08-29T18:56:36.111Z,45.67
2023-08-29T18:57:36.109Z,42.06
2023-08-29T18:58:37.662Z,46.68
2023-08-29T18:59:36.059Z,43.77
2023-08-29T19:00:36.104Z,40.96
2023-08-29T19:01:36.039Z,45.44
2023-08-29T19:02:36.061Z,47.31
2023-08-29T19:03:36.029Z,43.38